LiveATC.Net - Listen to live air traffic control over the Internet!


ICAO: KSPW  IATA: SPW   Airport: Spencer Municipal Airport
City: Spencer   State/Province: Iowa
Country: United States   Continent: North America
KSPW METAR Weather: KSPW 260553Z AUTO 32006KT 10SM FEW090 BKN110 13/11 A3022 RMK AO2 RAE34 SLP230 P0001 60001 T01330106 10217 20128 402330078 53005
KSPW Flight Activity (FlightAware)
KSPW Airport Info   (AirNav) (iFlightPlanner)
KSPW VFR Sectional Chart   (iFlightPlanner) 
KSPW IFR Low Chart   (iFlightPlanner) 
KSPW CTAF (Air Race Classic)
Feed Status: DOWN
Last heard on: 2017-06-23 15:37:02 (2 days 15 hours 19 minutes ago)
KSPW CTAF (Air Race Classic) Audio Archives
FacilityFrequency
Spencer CTAF123.000


NOTICE

Unauthorized use prohibited. See LiveATC.net Terms of Service


Find LiveATC Audio Streams


Airport/ARTCC Code

Frequency Search
(e.g., 124.400, 128.75)
Site-wide search
 


Browse LiveATC Feeds
LiveATC Coverage Map
Top 50 LiveATC Feeds
Bad Weather Areas

LiveATC FAQ
Offer a LiveATC Feed
Contact LiveATC.net
Press Inquiries

LiveATC on iPhone
LiveATC on Android

Windows Phone
Windows 8/10

LiveATC Mobile
(Mobile browser)

ATC Audio Archives
Interesting Recordings

LiveATC Forums


Home Page
About LiveATC.net
Make a Donation
LiveATC Store

Terms of Use
Privacy Policy

Canadian Air Freqs

AIRMETs/SIGMETs

FAA Airport Status
Nat'l Airspace Status
Arrival Demand Charts


Server Software By:
Icecast.org
Liquidsoap